Time;durP1;ratioP1;P1;durP2;ratioP2;P2;SDS_P1;SDS_P2;PMS_P1;PMS_P2;Temp;Humidity;BMP_temperature;BMP_pressure;BME280_temperature;BME280_humidity;BME280_pressure;Samples;Min_cycle;Max_cycle;Signal;HPM_P1;HPM_P2
2023/03/12 00:01:16;;;;;;;5.13;4.63;;;;;;;4.88;48.14;97556.16;8377473;28;20225;-68
2023/03/12 00:05:21;;;;;;;6.07;4.33;;;;;;;5.09;47.64;97567.53;8382142;28;20228;-68
2023/03/12 00:09:24;;;;;;;5.63;4.80;;;;;;;5.04;47.47;97571.13;8383502;28;20236;-68
2023/03/12 00:13:26;;;;;;;6.77;4.97;;;;;;;4.90;48.00;97567.22;8383588;28;20228;-68
2023/03/12 00:17:29;;;;;;;6.60;4.73;;;;;;;4.94;47.84;97560.28;8383329;28;20228;-68
2023/03/12 00:21:33;;;;;;;5.60;4.70;;;;;;;4.95;47.86;97573.94;8383298;28;20233;-68
2023/03/12 00:25:36;;;;;;;5.47;4.40;;;;;;;5.03;47.58;97569.47;8383049;28;20232;-68
2023/03/12 00:29:39;;;;;;;5.00;4.50;;;;;;;5.03;47.56;97577.16;8382873;28;20237;-68
2023/03/12 00:33:42;;;;;;;5.67;4.47;;;;;;;4.88;47.70;97579.25;8382195;28;20229;-69
2023/03/12 00:37:46;;;;;;;6.13;5.13;;;;;;;4.99;47.65;97573.84;8382588;28;20231;-68
2023/03/12 00:41:49;;;;;;;5.53;5.00;;;;;;;4.86;48.21;97570.75;8382281;28;20235;-68
2023/03/12 00:45:52;;;;;;;6.07;4.53;;;;;;;4.83;47.91;97567.44;8382161;28;20240;-68
2023/03/12 00:49:55;;;;;;;7.47;5.27;;;;;;;4.37;47.66;97492.59;8382467;28;20543;-68
2023/03/12 00:53:59;;;;;;;6.43;4.90;;;;;;;4.75;48.23;97575.34;8382372;28;20538;-68
2023/03/12 00:58:01;;;;;;;5.77;5.10;;;;;;;4.78;47.95;97562.44;8381943;28;20513;-68
2023/03/12 01:02:04;;;;;;;5.17;4.63;;;;;;;4.87;47.81;97571.59;8381732;28;20232;-68
2023/03/12 01:06:07;;;;;;;6.93;4.77;;;;;;;4.87;48.11;97574.16;8381628;28;20482;-68
2023/03/12 01:10:14;;;;;;;5.53;4.60;;;;;;;4.79;47.46;97565.84;8381627;28;20305;-68
2023/03/12 01:14:17;;;;;;;5.53;4.80;;;;;;;4.67;47.53;97565.28;8381600;28;20236;-68
2023/03/12 01:18:20;;;;;;;7.33;5.00;;;;;;;4.49;47.88;97571.78;8381195;28;20550;-68
2023/03/12 01:22:23;;;;;;;6.17;4.80;;;;;;;4.60;47.93;97573.19;8381420;28;20232;-68
2023/03/12 01:26:27;;;;;;;6.50;4.67;;;;;;;4.57;48.34;97568.13;8381156;28;20240;-68
2023/03/12 01:30:30;;;;;;;6.13;4.47;;;;;;;4.47;47.97;97552.16;8380666;28;20567;-67
2023/03/12 01:34:34;;;;;;;6.73;4.90;;;;;;;4.58;47.93;97564.69;8380936;28;20229;-68
2023/03/12 01:38:37;;;;;;;6.07;4.80;;;;;;;4.63;47.35;97579.09;8380971;28;20229;-68
2023/03/12 01:42:51;;;;;;;6.57;4.97;;;;;;;4.60;47.96;97568.91;8380946;28;20233;-67
2023/03/12 01:46:53;;;;;;;5.50;4.70;;;;;;;4.63;47.69;97557.75;8380429;28;20221;-67
2023/03/12 01:50:56;;;;;;;6.53;5.10;;;;;;;4.53;47.48;97559.69;8380560;28;20237;-68
2023/03/12 01:55:03;;;;;;;5.53;4.57;;;;;;;4.61;47.86;97557.78;8379994;28;20567;-67
2023/03/12 01:59:11;;;;;;;5.83;4.63;;;;;;;4.56;47.94;97563.91;8380152;28;20221;-68
2023/03/12 02:03:15;;;;;;;5.47;4.27;;;;;;;4.56;47.96;97559.59;8379846;28;20229;-68
2023/03/12 02:07:18;;;;;;;6.43;4.60;;;;;;;4.58;47.94;97557.84;8379811;28;20316;-67
2023/03/12 02:11:21;;;;;;;8.40;5.07;;;;;;;4.41;47.85;97562.56;8379985;28;20229;-68
2023/03/12 02:15:26;;;;;;;7.13;5.17;;;;;;;4.56;48.40;97559.59;8379550;28;20528;-68
2023/03/12 02:19:35;;;;;;;6.83;4.97;;;;;;;4.47;48.02;97553.03;8379481;28;20224;-68
2023/03/12 02:23:41;;;;;;;7.37;5.80;;;;;;;4.65;47.70;97553.41;8379541;28;20418;-68
2023/03/12 02:27:46;;;;;;;8.70;5.40;;;;;;;4.75;47.87;97557.38;8378575;28;20232;-67
2023/03/12 02:31:53;;;;;;;8.20;6.13;;;;;;;4.43;48.97;97555.69;8379111;28;20225;-68
2023/03/12 02:35:56;;;;;;;7.63;6.37;;;;;;;4.44;49.09;97555.66;8379030;28;20229;-68
2023/03/12 02:40:04;;;;;;;9.27;6.50;;;;;;;4.52;48.90;97562.31;8378862;28;20228;-68
2023/03/12 02:44:10;;;;;;;7.13;5.77;;;;;;;4.66;49.19;97568.75;8379049;28;20233;-68
2023/03/12 02:48:13;;;;;;;7.23;6.40;;;;;;;4.56;49.21;97575.00;8379151;28;20221;-68
2023/03/12 02:52:15;;;;;;;8.23;6.47;;;;;;;4.79;48.53;97571.81;8378949;28;20225;-68
2023/03/12 02:56:18;;;;;;;8.27;6.67;;;;;;;4.47;49.13;97576.09;8378665;28;20258;-68
2023/03/12 03:00:23;;;;;;;8.33;6.30;;;;;;;4.54;49.58;97574.19;8378497;28;20233;-68
2023/03/12 03:04:31;;;;;;;6.83;5.97;;;;;;;4.60;49.23;97574.03;8378306;28;20224;-68
2023/03/12 03:08:34;;;;;;;7.50;6.20;;;;;;;4.52;49.58;97572.56;8378620;28;20288;-68
2023/03/12 03:12:37;;;;;;;8.83;6.67;;;;;;;4.66;49.38;97573.03;8378467;28;20229;-68
2023/03/12 03:16:41;;;;;;;8.77;6.63;;;;;;;4.78;48.71;97579.53;8378267;28;20221;-68
2023/03/12 03:20:44;;;;;;;9.77;6.93;;;;;;;4.66;49.57;97576.44;8377740;28;20225;-67
2023/03/12 03:24:47;;;;;;;8.20;6.70;;;;;;;4.57;49.69;97568.13;8378396;28;20229;-67
2023/03/12 03:28:50;;;;;;;9.20;7.30;;;;;;;4.48;50.22;97574.38;8378387;28;20237;-68
2023/03/12 03:32:54;;;;;;;8.30;6.40;;;;;;;4.63;50.00;97583.38;8378228;28;20233;-68
2023/03/12 03:36:57;;;;;;;8.80;6.63;;;;;;;4.75;49.36;97569.38;8378334;28;20232;-68
2023/03/12 03:41:00;;;;;;;9.67;6.33;;;;;;;4.61;49.62;97573.16;8384086;28;20225;-68
2023/03/12 03:45:03;;;;;;;7.83;5.97;;;;;;;4.76;49.96;97592.44;8384497;28;20399;-68
2023/03/12 03:49:07;;;;;;;10.23;6.03;;;;;;;4.73;49.88;97592.50;8384327;28;20553;-68
2023/03/12 03:53:11;;;;;;;8.40;6.10;;;;;;;4.67;49.69;97584.97;8384353;28;20224;-68
2023/03/12 03:57:14;;;;;;;9.07;6.30;;;;;;;4.47;50.66;97583.78;8384111;28;20232;-68
2023/03/12 04:01:17;;;;;;;10.23;6.60;;;;;;;4.26;50.58;97584.31;8383985;28;20228;-68
2023/03/12 04:05:21;;;;;;;10.57;6.70;;;;;;;3.95;51.54;97586.81;8383940;28;20229;-68
2023/03/12 04:09:23;;;;;;;10.67;6.43;;;;;;;4.49;50.07;97569.19;8383715;28;20224;-68
2023/03/12 04:13:26;;;;;;;8.40;6.70;;;;;;;4.51;50.33;97571.69;8383730;28;20235;-68
2023/03/12 04:17:29;;;;;;;7.93;6.13;;;;;;;4.44;50.55;97576.16;8383489;28;20248;-68
2023/03/12 04:21:33;;;;;;;7.80;6.23;;;;;;;4.07;51.81;97578.81;8383234;28;20230;-68
2023/03/12 04:25:36;;;;;;;9.00;6.43;;;;;;;4.45;51.18;97572.69;8383325;28;20236;-68
2023/03/12 04:29:41;;;;;;;8.07;5.83;;;;;;;4.47;50.67;97581.22;8382993;28;20233;-68
2023/03/12 04:33:43;;;;;;;6.83;5.47;;;;;;;4.58;50.43;97574.97;8382481;28;20229;-68
2023/03/12 04:37:47;;;;;;;8.13;6.53;;;;;;;4.50;50.73;97565.75;8383024;28;20233;-67
2023/03/12 04:41:50;;;;;;;7.50;6.67;;;;;;;4.56;50.53;97571.59;8382674;28;20233;-68
2023/03/12 04:45:54;;;;;;;8.30;6.73;;;;;;;4.01;51.83;97563.59;8382204;28;20251;-68
2023/03/12 04:49:57;;;;;;;6.87;6.13;;;;;;;4.16;51.84;97563.19;8382177;28;20229;-68
2023/03/12 04:54:01;;;;;;;9.73;6.37;;;;;;;4.13;51.04;97572.69;8382509;28;20232;-68
2023/03/12 04:58:04;;;;;;;8.47;5.73;;;;;;;4.43;50.75;97566.78;8382091;28;20236;-68
2023/03/12 05:02:06;;;;;;;7.57;5.93;;;;;;;4.19;51.77;97572.53;8381940;28;20247;-68
2023/03/12 05:06:09;;;;;;;7.20;5.47;;;;;;;4.57;50.83;97576.69;8381952;28;20232;-69
2023/03/12 05:10:13;;;;;;;9.50;5.63;;;;;;;4.40;51.04;97566.00;8381961;28;20409;-69
2023/03/12 05:14:16;;;;;;;7.83;6.50;;;;;;;4.53;50.82;97566.53;8381749;28;20228;-69
2023/03/12 05:18:20;;;;;;;9.30;6.00;;;;;;;4.74;50.28;97571.13;8381570;28;20235;-69
2023/03/12 05:22:23;;;;;;;7.20;5.90;;;;;;;4.57;50.41;97573.25;8381433;28;20226;-68
2023/03/12 05:26:30;;;;;;;7.80;5.73;;;;;;;4.41;50.94;97568.53;8381298;28;20421;-68
2023/03/12 05:30:33;;;;;;;6.50;5.77;;;;;;;4.66;50.86;97570.47;8381195;28;20294;-68
2023/03/12 05:34:35;;;;;;;6.47;5.47;;;;;;;4.52;50.39;97562.31;8381281;28;20511;-68
2023/03/12 05:38:39;;;;;;;7.37;5.57;;;;;;;4.00;52.00;97552.50;8380881;28;20240;-68
2023/03/12 05:42:43;;;;;;;6.07;5.47;;;;;;;3.90;53.18;97557.00;8379815;28;20225;-68
2023/03/12 05:46:45;;;;;;;6.07;5.47;;;;;;;4.26;51.33;97562.06;8380611;28;20236;-68
2023/03/12 05:50:48;;;;;;;6.57;5.40;;;;;;;4.09;52.25;97575.34;8380415;28;20224;-69
2023/03/12 05:54:52;;;;;;;8.57;5.43;;;;;;;4.34;51.34;97582.41;8380332;28;20257;-69
2023/03/12 05:58:56;;;;;;;9.20;5.57;;;;;;;4.52;50.92;97577.69;8380417;28;20377;-68
2023/03/12 06:02:59;;;;;;;7.37;5.67;;;;;;;4.12;52.83;97571.84;8379326;28;20248;-68
2023/03/12 06:07:02;;;;;;;8.00;5.30;;;;;;;4.58;50.92;97580.91;8379723;28;20233;-68
2023/03/12 06:11:05;;;;;;;6.20;5.03;;;;;;;4.50;51.18;97573.44;8380039;28;20424;-68
2023/03/12 06:15:10;;;;;;;10.20;6.50;;;;;;;4.84;50.89;97566.56;8379552;28;20227;-68
2023/03/12 06:19:13;;;;;;;7.50;5.90;;;;;;;5.10;50.17;97573.50;8379855;28;20227;-68
2023/03/12 06:23:16;;;;;;;8.53;5.60;;;;;;;4.31;51.55;97572.22;8379738;28;20418;-68
2023/03/12 06:27:22;;;;;;;9.13;6.23;;;;;;;4.62;51.37;97574.00;8379520;28;20318;-68
2023/03/12 06:31:26;;;;;;;8.80;6.00;;;;;;;4.46;51.70;97582.09;8379294;28;20234;-68
2023/03/12 06:35:29;;;;;;;9.23;5.90;;;;;;;4.29;51.55;97582.53;8379174;28;20536;-67
2023/03/12 06:39:32;;;;;;;8.27;6.30;;;;;;;4.84;50.19;97581.97;8379243;28;20529;-68
2023/03/12 06:43:36;;;;;;;9.27;6.30;;;;;;;4.29;52.25;97597.06;8379270;28;20236;-68
2023/03/12 06:47:40;;;;;;;8.43;6.20;;;;;;;5.06;49.75;97592.44;8378996;28;20233;-68
2023/03/12 06:51:44;;;;;;;9.57;6.00;;;;;;;5.07;50.66;97574.44;8378697;28;20237;-68
2023/03/12 06:55:50;;;;;;;9.20;6.30;;;;;;;5.07;49.88;97582.16;8378680;28;20233;-68
2023/03/12 06:59:55;;;;;;;9.60;6.00;;;;;;;5.03;50.35;97557.47;8378830;28;20228;-68
2023/03/12 07:03:59;;;;;;;10.17;6.50;;;;;;;5.04;49.93;97573.69;8378881;28;20244;-69
2023/03/12 07:08:01;;;;;;;9.73;6.50;;;;;;;5.38;50.22;97580.41;8378609;28;20528;-68
2023/03/12 07:12:05;;;;;;;7.70;5.83;;;;;;;4.77;51.20;97578.72;8380203;28;20220;-69
2023/03/12 07:16:08;;;;;;;6.83;5.60;;;;;;;5.22;50.39;97573.16;8385456;28;20224;-68
2023/03/12 07:20:13;;;;;;;8.53;5.50;;;;;;;4.90;50.57;97549.25;8385415;28;20427;-68
2023/03/12 07:24:15;;;;;;;8.07;5.73;;;;;;;4.60;51.45;97561.19;8385196;28;20426;-68
2023/03/12 07:28:19;;;;;;;7.00;5.40;;;;;;;4.79;51.12;97550.44;8385009;28;20225;-68
2023/03/12 07:32:21;;;;;;;6.03;4.93;;;;;;;5.18;49.76;97557.88;8385237;28;20231;-68
2023/03/12 07:36:28;;;;;;;5.73;5.13;;;;;;;5.31;49.39;97560.94;8384621;28;20249;-68
2023/03/12 07:40:31;;;;;;;5.33;4.63;;;;;;;5.51;47.94;97548.34;8384803;28;20331;-69
2023/03/12 07:44:36;;;;;;;7.40;5.37;;;;;;;4.63;50.84;97562.88;8384569;28;20229;-68
2023/03/12 07:48:39;;;;;;;7.50;4.97;;;;;;;5.27;49.32;97552.47;8384701;28;20228;-68
2023/03/12 07:52:47;;;;;;;5.77;5.20;;;;;;;4.96;49.30;97540.53;8384138;28;20229;-68
2023/03/12 07:56:50;;;;;;;8.27;5.13;;;;;;;5.20;49.33;97544.13;8384164;28;20431;-68
2023/03/12 08:00:55;;;;;;;7.37;4.93;;;;;;;5.26;49.10;97554.22;8384101;28;20251;-69
2023/03/12 08:04:57;;;;;;;6.33;4.83;;;;;;;5.02;49.60;97550.63;8383987;28;20240;-69
2023/03/12 08:09:02;;;;;;;5.83;4.77;;;;;;;5.42;49.55;97549.44;8383669;28;20525;-68
2023/03/12 08:13:05;;;;;;;8.27;5.00;;;;;;;5.35;48.83;97553.13;8383885;28;20220;-68
2023/03/12 08:17:08;;;;;;;7.63;4.90;;;;;;;5.46;47.48;97563.03;8383605;28;20347;-68
2023/03/12 08:21:10;;;;;;;6.17;4.57;;;;;;;5.64;47.80;97566.81;8383413;28;20229;-68
2023/03/12 08:25:19;;;;;;;5.97;4.63;;;;;;;5.38;48.37;97567.59;8382632;28;20225;-69
2023/03/12 08:29:23;;;;;;;7.07;5.00;;;;;;;4.82;50.10;97570.91;8383257;28;20525;-69
2023/03/12 08:33:27;;;;;;;8.03;4.50;;;;;;;5.96;47.28;97554.66;8383407;28;20229;-69
2023/03/12 08:37:30;;;;;;;6.13;4.40;;;;;;;5.65;48.22;97556.47;8383252;28;20365;-69
2023/03/12 08:41:34;;;;;;;4.50;4.03;;;;;;;5.79;48.35;97558.63;8382990;28;20228;-69
2023/03/12 08:45:37;;;;;;;5.37;4.13;;;;;;;5.94;47.19;97548.72;8382711;28;20252;-69
2023/03/12 08:49:40;;;;;;;5.20;4.20;;;;;;;6.20;47.07;97538.44;8382844;28;20418;-69
2023/03/12 08:53:43;;;;;;;6.47;4.83;;;;;;;6.48;46.55;97550.38;8382289;28;20228;-69
2023/03/12 08:57:48;;;;;;;4.90;3.80;;;;;;;6.25;46.44;97544.28;8382329;28;20241;-69
2023/03/12 09:01:51;;;;;;;4.80;3.73;;;;;;;6.34;46.30;97540.56;8382270;28;20228;-69
2023/03/12 09:06:03;;;;;;;4.60;3.73;;;;;;;7.14;44.54;97534.28;8382173;28;20239;-69
2023/03/12 09:10:07;;;;;;;5.07;3.60;;;;;;;7.57;43.09;97530.91;8381927;28;20225;-69
2023/03/12 09:14:14;;;;;;;5.63;3.80;;;;;;;7.90;43.60;97534.78;8381997;28;20246;-69
2023/03/12 09:18:37;;;;;;;5.03;3.33;;;;;;;7.37;43.87;97513.66;8381881;28;20296;-69
2023/03/12 09:22:41;;;;;;;4.93;3.10;;;;;;;7.88;43.19;97531.44;8381111;28;20415;-69
2023/03/12 09:26:44;;;;;;;5.73;3.53;;;;;;;8.17;42.95;97541.41;8381557;28;20446;-69
2023/03/12 09:30:48;;;;;;;4.07;3.50;;;;;;;7.87;42.64;97534.94;8381491;28;20233;-70
2023/03/12 09:34:51;;;;;;;5.93;3.40;;;;;;;7.07;44.67;97543.16;8380737;28;20240;-69
2023/03/12 09:38:54;;;;;;;5.60;2.80;;;;;;;8.24;43.10;97549.72;8380893;28;20429;-69
2023/03/12 09:42:59;;;;;;;4.93;3.63;;;;;;;8.35;42.58;97539.78;8380856;28;20235;-69
2023/03/12 09:47:05;;;;;;;3.80;3.13;;;;;;;8.39;42.34;97540.50;8381321;28;20239;-68
2023/03/12 09:51:14;;;;;;;3.83;3.10;;;;;;;8.41;42.00;97518.94;8380948;28;20225;-68
2023/03/12 09:55:20;;;;;;;6.40;3.30;;;;;;;8.28;42.44;97533.22;8380531;28;20351;-68
2023/03/12 09:59:23;;;;;;;5.43;3.40;;;;;;;7.88;43.31;97537.44;8380196;28;20217;-68
2023/03/12 10:03:45;;;;;;;6.73;3.00;;;;;;;8.03;43.31;97541.13;8380497;28;20231;-68
2023/03/12 10:07:52;;;;;;;5.17;2.93;;;;;;;8.18;43.33;97530.16;8379779;28;20240;-68
2023/03/12 10:11:59;;;;;;;3.90;3.30;;;;;;;8.48;42.84;97501.44;8379852;28;20236;-69
2023/03/12 10:16:13;;;;;;;5.87;2.77;;;;;;;8.14;43.86;97520.06;8380021;28;20247;-69
2023/03/12 10:20:49;;;;;;;5.20;2.73;;;;;;;8.62;43.38;97518.91;8379918;28;20220;-69
2023/03/12 10:24:58;;;;;;;4.67;2.67;;;;;;;8.50;44.08;97506.53;8362204;28;20343;-69
2023/03/12 10:29:04;;;;;;;7.27;3.60;;;;;;;8.53;45.01;97514.13;8379661;28;20264;-69
2023/03/12 10:33:11;;;;;;;4.83;2.70;;;;;;;8.40;45.86;97495.75;8379603;28;20225;-69
2023/03/12 10:37:18;;;;;;;4.40;3.20;;;;;;;8.69;46.05;97520.31;8379387;28;20237;-69
2023/03/12 10:41:22;;;;;;;6.33;3.17;;;;;;;8.35;47.93;97521.72;8379099;28;20225;-69
2023/03/12 10:45:31;;;;;;;5.53;2.80;;;;;;;8.41;48.12;97516.34;8379108;28;20240;-69
2023/03/12 10:49:35;;;;;;;5.13;3.10;;;;;;;8.33;49.30;97526.13;8378810;28;20283;-69
2023/03/12 10:53:43;;;;;;;5.90;3.80;;;;;;;8.58;49.41;97523.34;8378903;28;20421;-69
2023/03/12 10:57:47;;;;;;;4.67;3.60;;;;;;;8.46;50.98;97523.06;8378485;28;20516;-69
2023/03/12 11:01:52;;;;;;;7.43;4.23;;;;;;;8.17;52.46;97528.50;8378681;28;20347;-68
2023/03/12 11:05:56;;;;;;;4.33;3.43;;;;;;;8.09;53.68;97527.13;8378867;28;20225;-69
2023/03/12 11:10:20;;;;;;;4.47;3.73;;;;;;;8.30;52.91;97522.81;8378826;28;20240;-69
2023/03/12 11:14:24;;;;;;;7.77;4.20;;;;;;;8.38;52.97;97516.44;8378524;28;20527;-69
2023/03/12 11:18:34;;;;;;;6.23;4.10;;;;;;;8.29;53.39;97526.31;8378385;28;20286;-69
2023/03/12 11:22:37;;;;;;;4.60;4.03;;;;;;;8.11;54.64;97535.66;8378500;28;20429;-69
2023/03/12 11:26:48;;;;;;;6.83;4.77;;;;;;;7.87;54.55;97453.25;8378131;28;20232;-69
2023/03/12 11:30:57;;;;;;;4.50;3.80;;;;;;;8.34;54.83;97511.47;8378089;28;20232;-69
2023/03/12 11:35:00;;;;;;;5.63;4.40;;;;;;;8.55;53.47;97527.84;8377994;28;20233;-69
2023/03/12 11:39:07;;;;;;;5.87;4.50;;;;;;;8.53;53.49;97532.19;8378258;28;20228;-68
2023/03/12 11:43:25;;;;;;;5.27;4.57;;;;;;;8.50;53.44;97509.94;8377935;28;20237;-68
2023/03/12 11:47:53;;;;;;;4.70;4.30;;;;;;;8.61;53.81;97515.47;8377874;28;20233;-69
2023/03/12 11:52:02;;;;;;;5.40;3.77;;;;;;;8.46;54.57;97507.56;8378165;28;20235;-68
2023/03/12 11:56:12;;;;;;;4.70;3.90;;;;;;;8.43;54.25;97510.28;8377742;28;20233;-69
2023/03/12 12:00:19;;;;;;;5.87;4.03;;;;;;;8.47;54.70;97501.50;8381496;28;20225;-69
2023/03/12 12:04:43;;;;;;;4.43;4.00;;;;;;;8.56;54.47;97508.84;8384385;28;20231;-68
2023/03/12 12:09:07;;;;;;;5.23;3.80;;;;;;;8.52;55.30;97502.16;8363071;28;20233;-68
2023/03/12 12:13:14;;;;;;;5.73;3.77;;;;;;;8.50;55.71;97497.03;8383733;28;20228;-69
2023/03/12 12:17:27;;;;;;;6.37;4.30;;;;;;;8.47;56.03;97494.59;8383736;28;20295;-69
2023/03/12 12:21:38;;;;;;;6.40;4.00;;;;;;;8.55;56.09;97481.38;8383213;28;20232;-69
2023/03/12 12:25:52;;;;;;;4.90;3.83;;;;;;;8.50;56.22;97486.72;8382970;28;20236;-68
2023/03/12 12:30:06;;;;;;;5.60;3.80;;;;;;;8.49;56.41;97479.91;8383226;28;20229;-69
2023/03/12 12:34:41;;;;;;;6.00;4.33;;;;;;;8.33;57.40;97453.88;8383348;28;20302;-69
2023/03/12 12:38:46;;;;;;;5.47;4.00;;;;;;;8.82;57.07;97471.56;8382405;28;20244;-68
2023/03/12 12:43:24;;;;;;;4.70;4.20;;;;;;;8.33;59.23;97479.66;8382127;28;20413;-69
2023/03/12 12:47:34;;;;;;;5.20;4.37;;;;;;;8.33;58.91;97450.47;8380980;28;20247;-69
2023/03/12 12:51:41;;;;;;;7.07;5.53;;;;;;;8.59;59.33;97467.44;8382364;28;20412;-69
2023/03/12 12:55:52;;;;;;;6.03;4.73;;;;;;;8.58;59.53;97455.41;8381909;28;20232;-69
2023/03/12 13:00:11;;;;;;;5.60;4.57;;;;;;;8.42;60.31;97452.69;8382049;28;20231;-69
2023/03/12 13:04:17;;;;;;;7.50;5.00;;;;;;;8.38;60.42;97457.09;8382096;28;20228;-68
2023/03/12 13:08:37;;;;;;;7.83;5.20;;;;;;;8.46;61.22;97454.22;8382005;28;20551;-68
2023/03/12 13:12:43;;;;;;;6.33;5.03;;;;;;;8.28;62.63;97452.41;8381542;28;20247;-69
2023/03/12 13:16:47;;;;;;;7.20;5.20;;;;;;;8.54;61.36;97446.97;8381186;28;20248;-69
2023/03/12 13:21:13;;;;;;;6.37;5.50;;;;;;;8.45;62.79;97436.22;8381822;28;20586;-68
2023/03/12 13:25:26;;;;;;;5.97;5.03;;;;;;;8.65;61.29;97427.59;8381523;28;20244;-69
2023/03/12 13:29:40;;;;;;;6.13;5.10;;;;;;;8.54;62.29;97441.81;8381037;28;20228;-69
2023/03/12 13:33:45;;;;;;;7.00;5.13;;;;;;;8.57;62.42;97427.94;8380895;28;20235;-69
2023/03/12 13:38:06;;;;;;;6.13;4.97;;;;;;;8.55;62.70;97442.66;8381017;28;20228;-69
2023/03/12 13:42:44;;;;;;;8.43;5.97;;;;;;;8.39;63.14;97440.69;8381126;28;20397;-69
2023/03/12 13:46:46;;;;;;;8.23;5.47;;;;;;;8.29;63.95;97431.69;8311169;28;20322;-68
2023/03/12 13:50:56;;;;;;;7.70;5.20;;;;;;;8.76;61.81;97417.63;8343928;28;20548;-68
2023/03/12 13:55:01;;;;;;;6.00;5.40;;;;;;;8.22;64.70;97422.53;8380535;28;20248;-68
2023/03/12 13:59:08;;;;;;;6.87;5.07;;;;;;;8.92;62.81;97434.06;8380465;28;20229;-69
2023/03/12 14:03:15;;;;;;;6.57;5.93;;;;;;;9.03;63.17;97431.00;8380468;28;20225;-69
2023/03/12 14:07:32;;;;;;;5.80;5.23;;;;;;;9.24;63.14;97438.66;8379744;28;20233;-69
2023/03/12 14:11:41;;;;;;;7.87;6.23;;;;;;;9.32;63.39;97439.94;8380243;28;20533;-69
2023/03/12 14:15:49;;;;;;;5.90;5.40;;;;;;;9.38;63.82;97433.66;8379897;28;20264;-68
2023/03/12 14:19:57;;;;;;;5.90;4.33;;;;;;;9.30;65.62;97436.59;8379962;28;20252;-68
2023/03/12 14:24:00;;;;;;;7.70;5.93;;;;;;;9.49;65.54;97427.97;8379412;28;20544;-69
2023/03/12 14:28:10;;;;;;;6.93;5.83;;;;;;;9.61;65.59;97417.03;8379644;28;20277;-69
2023/03/12 14:32:16;;;;;;;4.83;4.33;;;;;;;9.76;66.36;97433.53;8379308;28;20441;-69
2023/03/12 14:36:20;;;;;;;3.73;3.30;;;;;;;9.89;67.44;97423.41;8379471;28;20257;-69
2023/03/12 14:40:25;;;;;;;4.13;3.73;;;;;;;10.00;67.52;97428.91;8379392;28;20236;-69
2023/03/12 14:44:29;;;;;;;5.20;3.50;;;;;;;10.22;66.95;97431.19;8379286;28;20234;-69
2023/03/12 14:48:35;;;;;;;5.63;3.83;;;;;;;10.17;67.87;97446.16;8379369;28;20225;-69
2023/03/12 14:52:38;;;;;;;4.63;3.97;;;;;;;10.24;67.56;97446.66;8379129;28;20585;-69
2023/03/12 14:56:44;;;;;;;5.57;4.00;;;;;;;10.25;67.76;97438.81;8378529;28;20250;-69
2023/03/12 15:00:56;;;;;;;6.33;4.60;;;;;;;10.13;67.86;97447.22;8378269;28;20250;-68
2023/03/12 15:05:01;;;;;;;5.07;4.57;;;;;;;10.15;67.60;97447.97;8378566;28;20627;-69
2023/03/12 15:09:06;;;;;;;4.67;4.23;;;;;;;10.00;67.77;97447.00;8378475;28;20236;-69
2023/03/12 15:13:11;;;;;;;6.40;5.20;;;;;;;10.01;67.91;97447.84;8378456;28;20227;-69
2023/03/12 15:17:17;;;;;;;6.93;4.73;;;;;;;9.97;67.12;97429.88;8378743;28;20464;-69
2023/03/12 15:21:22;;;;;;;7.57;4.93;;;;;;;10.06;67.60;97445.84;8378677;28;20228;-69
2023/03/12 15:25:27;;;;;;;6.33;5.37;;;;;;;10.23;66.52;97445.00;8378684;28;20237;-69
2023/03/12 15:29:30;;;;;;;6.90;5.30;;;;;;;10.24;66.51;97436.31;8378669;28;20231;-69
2023/03/12 15:33:33;;;;;;;6.10;4.13;;;;;;;10.27;66.01;97429.22;8380559;28;20228;-69
2023/03/12 15:37:39;;;;;;;3.87;3.53;;;;;;;10.37;65.74;97421.84;8385321;28;20499;-69
2023/03/12 15:41:44;;;;;;;6.97;5.20;;;;;;;10.30;65.49;97413.59;8384089;28;20297;-68
2023/03/12 15:45:47;;;;;;;6.60;5.00;;;;;;;10.62;64.79;97407.63;8384572;28;20233;-69
2023/03/12 15:49:51;;;;;;;6.70;3.90;;;;;;;10.41;65.50;97414.75;8383612;28;20559;-69
2023/03/12 15:54:04;;;;;;;5.50;3.70;;;;;;;10.55;64.58;97415.72;8384255;28;20236;-69
2023/03/12 15:58:24;;;;;;;5.00;3.43;;;;;;;10.72;63.57;97417.41;8384163;28;20235;-69
2023/03/12 16:02:38;;;;;;;5.57;3.63;;;;;;;10.52;64.37;97402.09;8384209;28;20228;-69
2023/03/12 16:06:42;;;;;;;6.43;3.63;;;;;;;10.62;64.65;97434.34;8384046;28;20429;-69
2023/03/12 16:10:48;;;;;;;6.73;3.60;;;;;;;10.46;64.51;97420.53;8383701;28;20231;-69
2023/03/12 16:14:51;;;;;;;5.50;4.00;;;;;;;10.49;63.88;97439.34;8383719;28;20413;-69
2023/03/12 16:18:57;;;;;;;5.47;3.43;;;;;;;10.51;64.28;97445.28;8383760;28;20456;-69
2023/03/12 16:22:59;;;;;;;8.37;3.60;;;;;;;10.46;63.88;97447.25;8383791;28;20228;-69
2023/03/12 16:27:05;;;;;;;6.50;3.80;;;;;;;10.63;63.61;97458.50;8383468;28;20239;-69
2023/03/12 16:31:12;;;;;;;6.67;4.10;;;;;;;10.57;63.73;97447.53;8383222;28;20254;-69
2023/03/12 16:35:16;;;;;;;6.77;3.53;;;;;;;10.67;63.28;97441.88;8383209;28;20236;-69
2023/03/12 16:39:18;;;;;;;8.13;3.70;;;;;;;10.49;63.35;97425.53;8383048;28;20434;-69
2023/03/12 16:43:24;;;;;;;8.07;3.67;;;;;;;10.73;62.93;97452.72;8383022;28;20252;-69
2023/03/12 16:47:27;;;;;;;8.03;3.80;;;;;;;10.74;62.89;97459.59;8382140;28;20243;-69
2023/03/12 16:51:30;;;;;;;6.73;4.00;;;;;;;10.68;63.03;97448.72;8382802;28;20235;-69
2023/03/12 16:55:47;;;;;;;9.13;5.00;;;;;;;10.82;62.47;97448.00;8382360;28;20243;-69
2023/03/12 16:59:51;;;;;;;7.67;3.80;;;;;;;10.74;63.12;97441.47;8382143;28;20233;-70
2023/03/12 17:03:54;;;;;;;12.47;6.33;;;;;;;10.67;62.73;97452.25;8382213;28;20230;-69
2023/03/12 17:07:57;;;;;;;7.40;4.37;;;;;;;10.90;67.30;97443.22;8381455;28;20235;-71
2023/03/12 17:12:01;;;;;;;8.97;5.17;;;;;;;12.37;67.45;97447.00;8381906;28;20535;-69
2023/03/12 17:16:06;;;;;;;9.40;4.40;;;;;;;12.96;63.01;97440.88;8381905;28;20407;-69
2023/03/12 17:20:12;;;;;;;12.33;5.07;;;;;;;11.67;61.24;97433.78;8381486;28;20391;-68
2023/03/12 17:24:15;;;;;;;9.03;3.30;;;;;;;11.57;61.42;97440.44;8381141;28;20427;-68
2023/03/12 17:28:21;;;;;;;7.63;3.87;;;;;;;11.43;61.53;97438.63;8380338;28;20240;-69
2023/03/12 17:32:30;;;;;;;8.57;4.60;;;;;;;12.01;59.42;97460.41;8379997;28;20424;-68
2023/03/12 17:36:36;;;;;;;10.80;4.37;;;;;;;11.54;60.99;97464.78;8381426;28;20236;-68
2023/03/12 17:40:40;;;;;;;9.20;4.87;;;;;;;10.83;61.74;97380.53;8380816;28;20433;-68
2023/03/12 17:44:43;;;;;;;7.97;4.50;;;;;;;11.14;62.64;97461.81;8380836;28;20229;-67
2023/03/12 17:48:47;;;;;;;9.80;3.80;;;;;;;11.40;67.27;97467.28;8380917;28;20533;-69
2023/03/12 17:52:51;;;;;;;9.47;5.77;;;;;;;11.38;61.74;97467.38;8380807;28;20227;-68
2023/03/12 17:56:54;;;;;;;11.73;5.80;;;;;;;11.23;62.32;97465.63;8379471;28;20232;-69
2023/03/12 18:00:59;;;;;;;11.57;6.10;;;;;;;11.13;62.81;97470.47;8380651;28;20237;-69
2023/03/12 18:05:03;;;;;;;9.03;5.13;;;;;;;11.04;63.01;97456.28;8380373;28;20233;-69
2023/03/12 18:09:06;;;;;;;11.73;5.23;;;;;;;11.14;62.79;97467.81;8379851;28;20244;-70
2023/03/12 18:13:10;;;;;;;9.40;5.60;;;;;;;11.69;60.88;97474.28;8377836;28;20413;-71
2023/03/12 18:17:12;;;;;;;10.60;4.37;;;;;;;11.22;62.64;97479.53;8380133;28;20232;-71
2023/03/12 18:21:17;;;;;;;7.47;4.33;;;;;;;11.22;62.43;97479.53;8380022;28;20532;-71
2023/03/12 18:25:19;;;;;;;7.00;4.03;;;;;;;11.20;62.33;97483.97;8379453;28;20238;-70
2023/03/12 18:29:22;;;;;;;7.17;4.20;;;;;;;11.00;63.58;97488.44;8379487;28;20229;-71
2023/03/12 18:33:25;;;;;;;12.43;7.33;;;;;;;10.87;64.16;97485.69;8379413;28;20227;-71
2023/03/12 18:37:30;;;;;;;9.37;5.40;;;;;;;10.92;63.87;97488.03;8379136;28;20231;-71
2023/03/12 18:41:33;;;;;;;10.27;5.10;;;;;;;10.86;64.07;97486.59;8379251;28;20225;-71
2023/03/12 18:45:41;;;;;;;10.10;4.77;;;;;;;10.79;64.40;97492.19;8379615;28;20525;-71
2023/03/12 18:49:44;;;;;;;8.97;4.60;;;;;;;10.96;63.75;97494.72;8378756;28;20535;-71
2023/03/12 18:53:48;;;;;;;9.63;4.13;;;;;;;10.93;63.55;97494.91;8379179;28;20228;-70
2023/03/12 18:57:51;;;;;;;9.83;4.00;;;;;;;10.85;63.62;97489.25;8379163;28;20407;-70
2023/03/12 19:01:54;;;;;;;10.60;3.90;;;;;;;10.81;63.81;97478.22;8378893;28;20229;-69
2023/03/12 19:06:01;;;;;;;10.77;3.80;;;;;;;10.90;63.09;97484.69;8378535;28;20239;-70
2023/03/12 19:10:07;;;;;;;11.47;3.97;;;;;;;10.89;63.64;97477.81;8378577;28;20235;-70
2023/03/12 19:14:11;;;;;;;8.63;4.07;;;;;;;10.86;63.05;97480.59;8378712;28;20554;-70
2023/03/12 19:18:13;;;;;;;9.27;3.70;;;;;;;10.90;62.83;97484.69;8379000;28;20234;-70
2023/03/12 19:22:16;;;;;;;8.80;3.30;;;;;;;10.82;63.23;97497.22;8378993;28;20239;-70
2023/03/12 19:26:20;;;;;;;9.50;3.77;;;;;;;10.93;62.38;97498.31;8378591;28;20244;-70